Latest Weather Observations for Ceduna

IDS60801

Issued at 11:01 am CST Wednesday 29 June 2016 (issued every 30 minutes, with the page automatically refreshed every 10 minutes)

About weather observations | Map of weather stations | Latest weather observations for SA | Other Formats
Station Details ID: 018012 Name: CEDUNA AMO Lat: -32.13 Lon: 133.70 Height: 15.3 m
Data from the previous 72 hours. | See also: Recent months at Ceduna
Date/Time
CST
Temp
°C
App
Temp
°C
Dew
Point
°C
Rel
Hum
%
Delta-T
°C
Wind Press
QNH
hPa
Press
MSL
hPa
Rain since
9am
mm
Dir  Spd
km/h
Gust
km/h
Spd
kts
Gust
kts
29/11:00am 14.6 7.3 7.2 61 3.6 N 35 46 19 25 1018.7 1018.7 0.0
29/10:30am 13.7 5.5 6.6 62 3.4 N 39 52 21 28 1019.3 1019.3 0.0
29/10:00am 13.0 5.6 6.8 66 3.0 N 35 48 19 26 1019.3 1019.3 0.0
29/09:30am 11.9 4.8 6.6 70 2.5 N 33 44 18 24 1019.4 1019.4 0.0
29/09:00am 10.7 3.6 6.3 74 2.0 N 33 43 18 23 1019.5 1019.5 0.0
29/08:30am 9.7 2.5 5.9 77 1.7 N 33 41 18 22 1019.6 1019.6 0.0
29/08:00am 9.0 1.9 5.6 79 1.5 NNE 32 43 17 23 1019.5 1019.5 0.0
29/07:30am 8.8 1.7 5.7 81 1.4 NNE 32 39 17 21 1019.5 1019.5 0.0
29/07:00am 8.8 2.1 5.7 81 1.4 NNE 30 39 16 21 1019.6 1019.6 0.0
29/06:30am 8.7 2.0 5.6 81 1.4 NNE 30 37 16 20 1019.6 1019.6 0.0
29/06:00am 8.9 2.2 5.6 80 1.5 NNE 30 35 16 19 1019.8 1019.8 0.0
29/05:30am 8.9 2.6 5.6 80 1.5 NNE 28 35 15 19 1020.0 1020.0 0.0
29/05:00am 8.9 3.3 5.6 80 1.5 NNE 24 28 13 15 1020.2 1020.2 0.0
29/04:30am 8.8 3.2 5.5 80 1.5 NNE 24 30 13 16 1020.3 1020.3 0.0
29/04:00am 8.7 4.5 5.6 81 1.4 NNE 17 20 9 11 1020.8 1020.8 0.0
29/03:30am 8.8 4.0 5.7 81 1.4 NNE 20 24 11 13 1021.0 1021.0 0.0
29/03:00am 8.3 4.8 5.4 82 1.3 NNE 13 17 7 9 1021.5 1021.5 0.0
29/02:30am 9.4 4.6 5.8 78 1.6 NNE 20 28 11 15 1021.1 1021.1 0.0
29/02:00am 9.2 4.5 5.9 80 1.5 NNE 20 24 11 13 1021.2 1021.2 0.0
29/01:30am 8.3 3.4 5.2 81 1.4 NNE 20 26 11 14 1021.3 1021.3 0.0
29/01:00am 7.2 3.0 5.8 91 0.6 NE 17 20 9 11 1021.7 1021.7 0.0
29/12:30am 5.9 1.8 4.2 89 0.7 NE 15 17 8 9 1022.0 1022.0 0.0
29/12:00am 6.6 2.2 4.8 88 0.8 NE 17 20 9 11 1022.1 1022.1 0.0
 
Date/Time
CST
Temp
°C
App
Temp
°C
Dew
Point
°C
Rel
Hum
%
Delta-T
°C
Wind Press
QNH
hPa
Press
MSL
hPa
Rain since
9am
mm
Dir  Spd
km/h
Gust
km/h
Spd
kts
Gust
kts
28/11:30pm 6.3 1.4 4.3 87 0.9 NE 19 20 10 11 1022.4 1022.4 0.0
28/11:00pm 6.9 2.4 4.4 84 1.1 NE 17 20 9 11 1022.7 1022.7 0.0
28/10:30pm 7.9 3.2 5.0 82 1.3 NE 19 20 10 11 1022.9 1022.9 0.0
28/10:00pm 7.1 2.7 4.8 85 1.0 NE 17 19 9 10 1023.1 1023.1 0.0
28/09:30pm 6.2 2.1 4.2 87 0.9 NE 15 17 8 9 1023.2 1023.2 0.0
28/09:00pm 6.1 2.3 3.8 85 1.0 NE 13 15 7 8 1023.3 1023.3 0.0
28/08:30pm 6.2 2.3 3.5 83 1.1 NE 13 13 7 7 1023.1 1023.1 0.0
28/08:00pm 7.1 2.6 4.2 82 1.3 ENE 17 19 9 10 1023.0 1023.0 0.0
28/07:30pm 7.5 3.1 4.8 83 1.2 ENE 17 20 9 11 1022.9 1022.9 0.0
28/07:00pm 7.6 3.2 4.7 82 1.3 ENE 17 20 9 11 1022.9 1022.9 0.0
28/06:30pm 7.9 3.9 4.8 81 1.4 NE 15 17 8 9 1022.6 1022.6 0.0
28/06:00pm 10.3 6.4 5.3 71 2.3 NE 15 19 8 10 1022.3 1022.3 0.0
28/05:30pm 13.4 8.7 5.3 58 3.8 NE 19 24 10 13 1022.4 1022.4 0.0
28/05:00pm 14.8 10.6 5.6 54 4.4 NE 17 22 9 12 1022.4 1022.4 0.0
28/04:30pm 16.3 11.4 5.3 48 5.2 NNE 20 28 11 15 1022.7 1022.7 0.0
28/04:00pm 16.6 11.3 4.9 46 5.6 NNE 22 28 12 15 1023.0 1023.0 0.0
28/03:30pm 16.9 11.9 4.6 44 5.8 NNE 20 28 11 15 1023.3 1023.3 0.0
28/03:00pm 17.2 12.5 6.1 48 5.4 N 20 26 11 14 1023.5 1023.5 0.0
28/02:30pm 16.8 11.6 3.8 42 6.0 NNE 20 28 11 15 1023.8 1023.8 0.0
28/02:00pm 16.7 11.8 5.3 47 5.5 N 20 28 11 15 1024.2 1024.2 0.0
28/01:30pm 16.5 10.9 5.2 47 5.4 N 24 35 13 19 1024.8 1024.8 0.0
28/01:00pm 16.3 10.7 5.6 49 5.1 N 24 33 13 18 1025.3 1025.3 0.0
28/12:30pm 15.9 11.0 6.9 55 4.4 N 22 30 12 16 1026.0 1026.0 0.0
28/12:00pm 15.8 11.8 9.0 64 3.5 N 20 28 11 15 1026.7 1026.7 0.0
28/11:30am 15.2 11.7 8.9 66 3.2 N 17 20 9 11 1027.1 1027.1 0.0
28/11:00am 14.1 10.0 7.9 66 3.1 N 19 24 10 13 1027.5 1027.5 0.0
28/10:30am 13.2 9.2 8.1 71 2.5 N 19 24 10 13 1027.7 1027.7 0.0
28/10:00am 11.6 8.4 8.5 81 1.5 N 15 19 8 10 1027.7 1027.7 0.0
28/09:30am 9.8 6.8 7.6 86 1.0 N 13 17 7 9 1027.4 1027.4 0.0
28/09:00am 8.7 5.5 7.0 89 0.8 N 13 17 7 9 1027.1 1027.1 0.6
28/08:30am 7.7 4.4 6.5 92 0.5 N 13 17 7 9 1026.7 1026.7 0.6
28/08:00am 6.1 3.0 5.4 95 0.3 N 11 13 6 7 1026.5 1026.5 0.6
28/07:30am 5.5 1.9 5.1 97 0.2 NNE 13 15 7 8 1026.0 1026.0 0.6
28/07:00am 4.8 1.8 4.1 95 0.3 NNE 9 11 5 6 1025.8 1025.8 0.6
28/06:30am 5.2 2.7 4.8 97 0.2 NNE 7 9 4 5 1025.6 1025.6 0.4
28/06:00am 5.5 2.3 5.2 98 0.1 NE 11 13 6 7 1025.2 1025.2 0.4
28/05:30am 5.3 1.4 5.2 99 0.0 NE 15 15 8 8 1025.0 1025.0 0.4
28/05:00am 3.4 0.2 3.1 98 0.1 NE 9 11 5 6 1025.1 1025.1 0.4
28/04:30am 4.0 1.0 4.0 100 0.0 NNE 9 11 5 6 1024.8 1024.8 0.4
28/04:00am 1.8 -1.7 1.5 98 0.1 NNE 9 11 5 6 1024.8 1024.8 0.4
28/03:30am 2.5 -0.5 2.1 97 0.2 NNE 7 7 4 4 1024.9 1024.9 0.4
28/03:00am 3.2 0.4 2.9 98 0.1 NE 7 11 4 6 1025.0 1025.0 0.4
28/02:30am 2.7 0.0 2.4 98 0.1 NNE 6 7 3 4 1025.2 1025.2 0.4
28/02:00am 3.5 0.9 3.1 97 0.2 NNE 6 7 3 4 1025.2 1025.2 0.4
28/01:30am 4.4 1.8 4.1 98 0.1 N 7 9 4 5 1025.1 1025.1 0.4
28/01:00am 4.2 1.5 3.9 98 0.1 NE 7 7 4 4 1025.1 1025.1 0.4
28/12:30am 4.4 1.4 4.1 98 0.1 NE 9 9 5 5 1025.2 1025.2 0.4
28/12:00am 4.0 1.3 3.6 97 0.2 NE 7 9 4 5 1025.4 1025.4 0.4
 
Date/Time
CST
Temp
°C
App
Temp
°C
Dew
Point
°C
Rel
Hum
%
Delta-T
°C
Wind Press
QNH
hPa
Press
MSL
hPa
Rain since
9am
mm
Dir  Spd
km/h
Gust
km/h
Spd
kts
Gust
kts
27/11:30pm 4.6 1.6 4.2 97 0.2 NE 9 9 5 5 1025.5 1025.5 0.4
27/11:00pm 4.8 2.4 4.4 97 0.2 NNE 6 9 3 5 1025.6 1025.6 0.4
27/10:30pm 5.2 2.7 4.8 97 0.2 NNE 7 9 4 5 1025.6 1025.6 0.4
27/10:00pm 4.6 2.0 4.0 96 0.3 NE 7 9 4 5 1025.5 1025.5 0.4
27/09:30pm 6.3 4.0 5.9 97 0.2 NNE 7 9 4 5 1025.7 1025.7 0.4
27/09:00pm 5.9 3.5 5.3 96 0.3 N 7 9 4 5 1025.7 1025.7 0.4
27/08:30pm 5.4 3.0 4.5 94 0.4 NNE 6 7 3 4 1025.4 1025.4 0.4
27/08:00pm 7.4 4.8 6.3 93 0.5 NNE 9 9 5 5 1025.2 1025.2 0.4
27/07:30pm 7.2 5.1 5.7 90 0.7 NNE 6 7 3 4 1024.9 1024.9 0.4
27/07:00pm 8.7 6.3 7.2 90 0.7 N 9 9 5 5 1024.8 1024.8 0.4
27/06:30pm 11.3 9.9 8.9 85 1.2 WSW 6 6 3 3 1024.5 1024.5 0.4
27/06:00pm 11.7 10.1 8.7 82 1.5 WSW 7 9 4 5 1024.1 1024.1 0.4
27/05:30pm 13.3 11.5 9.5 78 1.9 WSW 9 11 5 6 1023.8 1023.8 0.4
27/05:00pm 14.5 12.4 9.9 74 2.4 WSW 11 17 6 9 1023.7 1023.7 0.4
27/04:30pm 15.0 13.2 10.8 76 2.2 SW 11 13 6 7 1023.7 1023.7 0.4
27/04:00pm 15.3 13.3 10.3 72 2.6 SW 11 15 6 8 1023.5 1023.5 0.4
27/03:30pm 15.6 13.7 10.4 71 2.7 SW 11 15 6 8 1023.4 1023.4 0.4
27/03:00pm 15.7 13.8 10.5 71 2.7 SW 11 15 6 8 1023.4 1023.4 0.4
27/02:30pm 15.5 14.8 10.1 70 2.8 ESE 4 9 2 5 1023.4 1023.4 0.4
27/02:00pm 13.7 12.6 10.1 79 1.9 SW 6 9 3 5 1023.7 1023.7 0.4
27/01:30pm 14.0 9.8 9.8 76 2.2 WSW 22 30 12 16 1023.9 1023.9 0.4
27/01:00pm 15.8 13.4 9.9 68 3.1 WNW 13 20 7 11 1024.1 1024.1 0.4
27/12:30pm 15.4 12.5 9.5 68 3.0 WNW 15 20 8 11 1024.5 1024.5 0.4
27/12:00pm 14.9 12.5 9.9 72 2.6 WNW 13 17 7 9 1024.8 1024.8 0.4
27/11:30am 14.5 12.8 11.1 80 1.8 NNW 11 15 6 8 1025.0 1025.0 0.4
27/11:00am 12.6 10.3 10.3 86 1.2 NNW 13 19 7 10 1025.3 1025.3 0.4
27/10:30am 11.1 8.4 10.2 94 0.5 NNW 15 17 8 9 1025.4 1025.4 0.4
27/10:00am 10.7 8.9 9.6 93 0.6 NW 9 11 5 6 1025.3 1025.3 0.4
27/09:30am 11.5 8.9 9.4 87 1.0 NNW 13 19 7 10 1025.0 1025.0 0.0
27/09:00am 9.7 7.3 8.5 92 0.6 NNW 11 15 6 8 1024.6 1024.6 2.0
27/08:30am 8.1 5.1 7.8 98 0.1 NNW 13 17 7 9 1024.3 1024.3 2.0
27/08:00am 7.5 4.0 7.2 98 0.1 N 15 17 8 9 1023.8 1023.8 2.0
27/07:30am 7.7 5.0 7.3 97 0.2 NNW 11 13 6 7 1023.6 1023.6 2.0
27/07:00am 9.0 7.0 8.6 97 0.2 NNE 9 11 5 6 1023.0 1023.0 1.8
27/06:40am 8.6 6.9 8.2 97 0.2 N 7 11 4 6 1022.9 1022.9 1.8
27/06:30am 8.5 5.5 7.9 96 0.3 SSE 13 20 7 11 1022.9 1022.9 1.8
27/06:20am 8.7 6.1 7.9 95 0.4 SW 11 24 6 13 1022.9 1022.9 1.0
27/06:00am 7.3 4.8 6.4 94 0.4 N 9 11 5 6 1022.4 1022.4 0.2
27/05:30am 6.7 3.7 6.0 95 0.3 N 11 15 6 8 1022.2 1022.2 0.2
27/05:00am 6.9 4.2 5.8 93 0.5 N 9 11 5 6 1021.9 1021.9 0.2
27/04:30am 6.3 3.2 5.4 94 0.4 N 11 13 6 7 1021.8 1021.8 0.2
27/04:00am 5.1 2.1 3.9 92 0.5 NNW 9 9 5 5 1021.6 1021.6 0.2
27/03:30am 5.5 4.1 3.5 87 0.8 CALM 0 0 0 0 1021.3 1021.3 0.2
27/03:00am 8.4 6.9 5.2 80 1.4 SSW 2 6 1 3 1021.3 1021.3 0.2
27/02:30am 9.7 7.1 6.2 79 1.6 SSW 9 11 5 6 1021.3 1021.3 0.2
27/02:00am 10.3 6.9 6.1 75 1.9 S 13 15 7 8 1021.1 1021.1 0.2
27/01:30am 11.0 7.3 6.4 73 2.2 SSW 15 17 8 9 1020.9 1020.9 0.2
27/01:00am 11.2 7.9 6.3 72 2.3 SSW 13 17 7 9 1020.8 1020.8 0.2
27/12:30am 12.6 9.3 8.1 74 2.2 SSW 15 19 8 10 1020.7 1020.7 0.2
27/12:00am 11.8 8.7 7.1 73 2.2 SSW 13 17 7 9 1020.7 1020.7 0.2
 
Date/Time
CST
Temp
°C
App
Temp
°C
Dew
Point
°C
Rel
Hum
%
Delta-T
°C
Wind Press
QNH
hPa
Press
MSL
hPa
Rain since
9am
mm
Dir  Spd
km/h
Gust
km/h
Spd
kts
Gust
kts
26/11:30pm 12.5 8.2 7.2 70 2.6 SSW 19 24 10 13 1020.5 1020.5 0.2
26/11:00pm 12.5 8.2 8.0 74 2.2 SSW 20 28 11 15 1020.4 1020.4 0.2
26/10:30pm 12.6 8.9 8.1 74 2.2 S 17 22 9 12 1020.0 1020.0 0.2
26/10:00pm 12.4 8.4 8.3 76 2.0 SSW 19 24 10 13 1019.7 1019.7 0.2
26/09:30pm 12.5 8.7 9.9 84 1.3 S 20 28 11 15 1019.5 1019.5 0.2
26/09:00pm 12.8 8.2 9.6 81 1.6 SSW 24 30 13 16 1019.3 1019.3 0.2
26/08:30pm 12.6 8.3 10.7 88 1.0 SSW 24 35 13 19 1018.9 1018.9 0.2
26/08:00pm 12.8 9.3 11.0 89 0.9 WSW 20 30 11 16 1018.6 1018.6 0.0
26/07:30pm 11.7 7.7 10.4 92 0.7 WNW 22 35 12 19 1018.3 1018.3 0.0
26/07:00pm 11.7 9.1 10.6 93 0.6 WNW 15 24 8 13 1018.3 1018.3 0.0
26/06:30pm 12.2 9.9 10.3 88 1.0 NW 13 20 7 11 1018.1 1018.1 0.0
26/06:00pm 12.9 10.3 10.6 86 1.2 WNW 15 22 8 12 1017.7 1017.7 0.0
26/05:30pm 13.0 10.0 10.5 85 1.3 WNW 17 24 9 13 1017.3 1017.3 0.0
26/05:00pm 13.2 9.8 10.4 83 1.5 WNW 19 26 10 14 1017.1 1017.1 0.0
26/04:30pm 13.6 9.9 10.0 79 1.9 W 20 28 11 15 1016.9 1016.9 0.0
26/04:00pm 14.3 9.3 9.5 73 2.5 W 26 35 14 19 1016.8 1016.8 0.0
26/03:30pm 14.7 11.0 9.3 70 2.8 W 19 22 10 12 1016.6 1016.6 0.0
26/03:00pm 14.9 10.2 7.9 63 3.5 WNW 22 32 12 17 1016.4 1016.4 0.0
26/02:30pm 15.5 11.5 9.2 66 3.2 WNW 20 32 11 17 1016.3 1016.3 0.0
26/02:00pm 15.0 11.2 9.1 68 3.0 WNW 19 24 10 13 1016.4 1016.4 0.0
26/01:30pm 14.9 10.4 8.4 65 3.3 WNW 22 28 12 15 1016.6 1016.6 0.0
26/01:00pm 15.1 11.0 8.6 65 3.3 WNW 20 30 11 16 1016.9 1016.9 0.0
26/12:30pm 15.8 11.2 8.1 60 3.9 NW 22 32 12 17 1017.2 1017.2 0.0
26/12:00pm 15.2 11.0 8.4 64 3.4 NW 20 28 11 15 1017.8 1017.8 0.0
26/11:30am 14.6 10.1 8.5 67 3.1 NNW 22 28 12 15 1018.1 1018.1 0.0

Other Formats:

Comma delimited format used in spreadsheet applications
http://www.bom.gov.au/fwo/IDS60801/IDS60801.94653.axf

JavaScript Object Notation format (JSON) in row-major order
http://www.bom.gov.au/fwo/IDS60801/IDS60801.94653.json